首页
METAR-TAF:

METAR-TAF

机场 :

溫哥華國際機場

溫哥華, 不列颠哥伦比亚, 加拿大

纬度: 49-11N, 经度: 123-10W, 海拔: 3米

当前天气观测

该预报发布于53分钟前的06:00 UTC
风速9节,风向西转西北
温度 14°C
湿度 77%
气压 1004 hPa
能見度: 48.3公里
少量云层高于18000英尺
多云层高于22000英尺
多云层高于25000英尺

METAR: CYVR 190600Z 30009KT 30SM FEW180 BKN220 BKN250 14/10 A2965 RMK AS1CS4CI2 SLP042 DENSITY ALT 300FT

时间: 23:53 (06:53 UTC)

预报

该预报发布于1小时和15分钟前的05:38 UTC
预报有效从19日的 06点(UTC)到 20日的 12点(UTC)
风速8节,风向西北
能見度: 10公里
少量云层高于22000英尺
多云层高于24000英尺
从 19日的 1000点(UTC)
风速5节,风向
能見度: 10公里
少量云层高于3000英尺
多云层高于8000英尺
从 19日的 1600点(UTC)
风速10节,风向西
能見度: 10公里
少量云层高于4000英尺
散云层高于8000英尺
成为
从 20日的 04点(UTC)到 20日的 06点(UTC)
风速10节,风向

TAF: CYVR 190538Z 1906/2012 32008KT P6SM FEW220 BKN240 FM191000 09005KT P6SM FEW030 BKN080 FM191600 28010KT P6SM FEW040 SCT080 BECMG 2004/2006 09010KT RMK NXT FCST BY 190900Z

超过4000个机场的气象观测和天气预报(METAR&TAF报告)。

可查询的气象台以黄色和红色小点在地图上表示。

将鼠标移到小点上方,可查看气象台名称。

然后点击查看天气观测和预报。

如需切换地图:点击带黑十字的绿色按钮放大地图;点击带横线的绿色按钮缩小地图;或者点击绿色箭头查看邻近地区的地图。


METAR-TAF: